createdAt,value
2022-09-20T00:02:51.075Z,82.72
2022-09-20T00:05:54.040Z,82.37
2022-09-20T00:08:57.325Z,82.54
2022-09-20T00:12:00.421Z,82.65
2022-09-20T00:15:04.089Z,82.84
2022-09-20T00:18:12.505Z,82.75
2022-09-20T00:21:17.711Z,82.85
2022-09-20T00:24:20.678Z,82.96
2022-09-20T00:27:27.644Z,82.64
2022-09-20T00:30:31.851Z,82.71
2022-09-20T00:33:53.643Z,82.86
2022-09-20T00:36:56.509Z,82.78
2022-09-20T00:39:59.437Z,83.01
2022-09-20T00:43:03.922Z,82.85
2022-09-20T00:46:42.783Z,83.04
2022-09-20T00:49:46.775Z,82.98
2022-09-20T00:52:55.067Z,82.72
2022-09-20T00:56:16.665Z,82.78
2022-09-20T00:59:31.404Z,82.76
2022-09-20T01:02:39.793Z,83.13
2022-09-20T01:05:44.717Z,82.82
2022-09-20T01:08:51.701Z,82.86
2022-09-20T01:11:58.503Z,83.08
2022-09-20T01:15:05.315Z,82.99
2022-09-20T01:18:10.385Z,82.98
2022-09-20T01:21:15.543Z,83.10
2022-09-20T01:24:28.545Z,83.10
2022-09-20T01:27:47.273Z,83.14
2022-09-20T01:31:03.653Z,82.92
2022-09-20T01:34:19.315Z,83.26
2022-09-20T01:37:28.578Z,83.13
2022-09-20T01:41:07.118Z,83.35
2022-09-20T01:44:14.185Z,83.20
2022-09-20T01:47:19.296Z,83.11
2022-09-20T01:50:31.490Z,83.27
2022-09-20T01:53:40.498Z,83.10
2022-09-20T01:56:53.601Z,83.29
2022-09-20T02:00:05.681Z,83.30
2022-09-20T02:03:47.026Z,83.20
2022-09-20T02:07:34.620Z,83.33
2022-09-20T02:10:57.477Z,83.28
2022-09-20T02:14:25.298Z,83.33
2022-09-20T02:17:43.504Z,83.26
2022-09-20T02:20:49.547Z,83.34
2022-09-20T02:24:14.522Z,83.34
2022-09-20T02:27:32.025Z,83.55
2022-09-20T02:31:02.417Z,83.46
2022-09-20T02:34:38.650Z,83.54
2022-09-20T02:38:00.860Z,83.52
2022-09-20T02:41:31.155Z,83.27
2022-09-20T02:44:46.918Z,83.14
2022-09-20T02:47:50.302Z,83.39
2022-09-20T02:51:06.476Z,83.30
2022-09-20T02:54:34.620Z,83.40
2022-09-20T02:57:50.998Z,83.68
2022-09-20T03:01:10.281Z,83.68
2022-09-20T03:04:16.076Z,83.70
2022-09-20T03:07:31.234Z,83.81
2022-09-20T03:10:36.969Z,83.73
2022-09-20T03:14:11.043Z,83.66
2022-09-20T03:17:27.734Z,83.82
2022-09-20T03:20:39.400Z,84.23
2022-09-20T03:23:51.384Z,83.98
2022-09-20T03:27:08.170Z,83.90
2022-09-20T03:30:41.767Z,84.24
2022-09-20T03:34:36.488Z,84.13
2022-09-20T03:38:17.222Z,84.23
2022-09-20T03:41:51.610Z,84.07
2022-09-20T03:45:21.295Z,84.20
2022-09-20T03:48:39.723Z,84.12
2022-09-20T03:52:20.652Z,84.30
2022-09-20T03:56:01.392Z,84.30
2022-09-20T03:59:18.579Z,84.19
2022-09-20T04:02:40.166Z,84.29
2022-09-20T04:05:55.740Z,84.15
2022-09-20T04:09:07.918Z,84.36
2022-09-20T04:12:42.818Z,84.11
2022-09-20T04:16:11.093Z,84.27
2022-09-20T04:19:42.591Z,84.15
2022-09-20T04:22:51.569Z,84.07
2022-09-20T04:25:54.572Z,84.22
2022-09-20T04:29:14.577Z,84.29
2022-09-20T04:32:42.486Z,84.31
2022-09-20T04:36:19.900Z,84.29
2022-09-20T04:39:35.195Z,84.25
2022-09-20T04:42:56.474Z,84.28
2022-09-20T04:46:29.737Z,84.17
2022-09-20T04:49:34.305Z,84.01
2022-09-20T04:52:55.943Z,84.18
2022-09-20T04:56:10.080Z,84.20
2022-09-20T04:59:55.713Z,84.23
2022-09-20T05:03:46.781Z,84.15
2022-09-20T05:06:59.479Z,84.23
2022-09-20T05:10:24.761Z,84.09
2022-09-20T05:13:37.248Z,83.99
2022-09-20T05:16:58.508Z,83.97
2022-09-20T05:20:13.890Z,84.29
2022-09-20T05:23:51.248Z,84.07
2022-09-20T05:27:32.088Z,84.14
2022-09-20T05:30:49.586Z,84.17
2022-09-20T05:34:14.461Z,83.79
2022-09-20T05:37:19.542Z,83.76
2022-09-20T05:40:37.472Z,83.80
2022-09-20T05:44:18.098Z,83.78
2022-09-20T05:47:50.118Z,83.80
2022-09-20T05:51:04.173Z,83.61
2022-09-20T05:54:25.846Z,83.50
2022-09-20T05:57:44.108Z,83.59
2022-09-20T06:00:59.625Z,83.49
2022-09-20T06:04:34.251Z,83.47
2022-09-20T06:08:00.452Z,83.30
2022-09-20T06:11:33.205Z,83.36
2022-09-20T06:14:48.253Z,83.47
2022-09-20T06:18:11.181Z,83.32
2022-09-20T06:21:31.554Z,83.37
2022-09-20T06:24:45.170Z,83.17
2022-09-20T06:27:55.605Z,83.36
2022-09-20T06:30:59.026Z,83.39
2022-09-20T06:34:10.411Z,83.14
2022-09-20T06:37:54.052Z,83.28
2022-09-20T06:41:17.594Z,83.29
2022-09-20T06:44:20.386Z,83.09
2022-09-20T06:47:23.637Z,83.12
2022-09-20T06:50:27.055Z,83.42
2022-09-20T06:53:32.887Z,83.25
2022-09-20T06:56:37.057Z,83.29
2022-09-20T06:59:40.133Z,83.17
2022-09-20T07:02:44.231Z,83.08
2022-09-20T07:05:47.407Z,82.88
2022-09-20T07:08:50.382Z,83.04
2022-09-20T07:11:53.554Z,83.14
2022-09-20T07:14:56.734Z,82.92
2022-09-20T07:18:00.831Z,83.00
2022-09-20T07:21:06.570Z,82.90
2022-09-20T07:24:09.550Z,82.87
2022-09-20T07:27:12.920Z,82.91
2022-09-20T07:30:16.301Z,82.86
2022-09-20T07:33:21.935Z,82.82
2022-09-20T07:36:25.110Z,82.98
2022-09-20T07:39:28.390Z,82.90
2022-09-20T07:42:32.184Z,82.72
2022-09-20T07:45:38.844Z,82.70
2022-09-20T07:48:41.811Z,82.71
2022-09-20T07:51:45.496Z,82.58
2022-09-20T07:54:50.214Z,82.46
2022-09-20T07:57:54.819Z,82.52
2022-09-20T08:00:59.993Z,82.63
2022-09-20T08:04:05.167Z,82.52
2022-09-20T08:07:08.134Z,82.42
2022-09-20T08:10:11.322Z,82.28
2022-09-20T08:16:40.022Z,82.06
2022-09-20T08:19:43.746Z,82.15
2022-09-20T08:23:06.408Z,82.05
2022-09-20T08:26:14.035Z,82.08
2022-09-20T08:29:17.036Z,81.98
2022-09-20T08:32:19.803Z,82.02
2022-09-20T08:35:22.992Z,81.89
2022-09-20T08:42:06.047Z,81.75
2022-09-20T08:48:41.281Z,81.61
2022-09-20T08:51:48.587Z,81.55
2022-09-20T08:54:53.222Z,81.42
2022-09-20T08:57:58.349Z,81.53
2022-09-20T09:01:01.800Z,81.34
2022-09-20T09:04:21.566Z,81.18
2022-09-20T09:07:25.719Z,81.10
2022-09-20T09:10:42.505Z,80.96
2022-09-20T09:13:54.385Z,80.98
2022-09-20T09:16:57.530Z,80.79
2022-09-20T09:20:16.293Z,80.83
2022-09-20T09:23:27.859Z,80.59
2022-09-20T09:26:40.327Z,80.71
2022-09-20T09:29:55.194Z,80.63
2022-09-20T09:33:17.401Z,80.76
2022-09-20T09:36:26.148Z,80.60
2022-09-20T09:39:31.889Z,80.65
2022-09-20T09:42:36.663Z,80.73
2022-09-20T09:45:40.398Z,80.45
2022-09-20T09:48:43.623Z,80.25
2022-09-20T09:52:16.166Z,80.14
2022-09-20T09:55:19.347Z,80.32
2022-09-20T09:58:34.808Z,80.12
2022-09-20T10:01:49.845Z,80.11
2022-09-20T10:05:04.899Z,79.78
2022-09-20T10:08:22.913Z,79.75
2022-09-20T10:11:59.076Z,79.66
2022-09-20T10:15:17.670Z,78.87
2022-09-20T10:18:42.646Z,78.79
2022-09-20T10:22:19.795Z,78.47
2022-09-20T10:25:44.670Z,78.69
2022-09-20T10:29:08.751Z,77.93
2022-09-20T10:32:50.269Z,78.33
2022-09-20T10:36:08.592Z,77.82
2022-09-20T10:39:24.553Z,77.70
2022-09-20T10:43:17.678Z,77.90
2022-09-20T10:46:34.133Z,77.53
2022-09-20T10:49:53.709Z,77.78
2022-09-20T10:53:18.477Z,77.55
2022-09-20T10:56:37.209Z,77.33
2022-09-20T11:00:00.161Z,77.39
2022-09-20T11:03:40.155Z,77.57
2022-09-20T11:06:43.743Z,76.58
2022-09-20T11:10:01.858Z,75.77
2022-09-20T11:13:35.134Z,75.55
2022-09-20T11:17:00.610Z,75.54
2022-09-20T11:20:28.041Z,74.47
2022-09-20T11:23:51.163Z,74.35
2022-09-20T11:27:13.178Z,74.42
2022-09-20T11:30:19.014Z,74.17
2022-09-20T11:33:31.804Z,74.79
2022-09-20T11:36:45.833Z,74.93
2022-09-20T11:40:02.043Z,75.25
2022-09-20T11:43:08.861Z,75.20
2022-09-20T11:46:19.041Z,74.21
2022-09-20T11:49:43.054Z,74.72
2022-09-20T11:53:01.371Z,73.39
2022-09-20T11:56:21.804Z,70.94
2022-09-20T11:59:25.327Z,72.25
2022-09-20T12:02:40.712Z,72.40
2022-09-20T12:05:58.210Z,71.43
2022-09-20T12:09:23.055Z,70.92
2022-09-20T12:12:36.059Z,69.75
2022-09-20T12:15:40.566Z,68.38
2022-09-20T12:19:08.129Z,68.85
2022-09-20T12:22:41.773Z,69.44
2022-09-20T12:26:01.298Z,68.12
2022-09-20T12:29:27.111Z,65.80
2022-09-20T12:32:39.018Z,61.75
2022-09-20T12:36:00.145Z,62.96
2022-09-20T12:39:10.235Z,63.91
2022-09-20T12:42:13.077Z,63.71
2022-09-20T12:45:19.044Z,65.75
2022-09-20T12:48:22.624Z,65.24
2022-09-20T12:51:52.091Z,64.56
2022-09-20T12:54:58.132Z,64.30
2022-09-20T12:58:19.819Z,63.72
2022-09-20T13:01:22.752Z,65.20
2022-09-20T13:04:56.998Z,64.45
2022-09-20T13:08:10.083Z,62.60
2022-09-20T13:11:18.701Z,60.74
2022-09-20T13:14:29.534Z,61.26
2022-09-20T13:17:33.848Z,61.50
2022-09-20T13:20:37.423Z,62.41
2022-09-20T13:23:54.110Z,59.65
2022-09-20T13:27:06.698Z,60.61
2022-09-20T13:30:15.507Z,60.49
2022-09-20T13:33:24.527Z,60.26
2022-09-20T13:36:30.260Z,60.76
2022-09-20T13:39:36.439Z,61.15
2022-09-20T13:42:39.568Z,60.65
2022-09-20T13:45:44.729Z,61.29
2022-09-20T13:48:48.992Z,61.54
2022-09-20T13:51:52.383Z,61.82
2022-09-20T13:54:58.195Z,62.29
2022-09-20T13:58:04.560Z,61.56
2022-09-20T14:01:22.337Z,61.56
2022-09-20T14:04:31.993Z,61.38
2022-09-20T14:07:37.111Z,60.98
2022-09-20T14:10:43.982Z,59.41
2022-09-20T14:13:50.905Z,57.31
2022-09-20T14:16:57.576Z,57.99
2022-09-20T14:20:01.076Z,58.89
2022-09-20T14:23:57.532Z,58.91
2022-09-20T14:27:04.847Z,60.39
2022-09-20T14:30:38.825Z,61.79
2022-09-20T14:33:45.580Z,63.32
2022-09-20T14:36:50.603Z,64.35
2022-09-20T14:39:56.947Z,65.60
2022-09-20T14:43:03.879Z,66.75
2022-09-20T14:46:16.507Z,68.41
2022-09-20T14:49:33.249Z,69.45
2022-09-20T14:52:39.190Z,70.54
2022-09-20T14:56:05.333Z,71.60
2022-09-20T14:59:17.407Z,72.48
2022-09-20T15:02:21.645Z,72.85
2022-09-20T15:05:27.225Z,73.35
2022-09-20T15:08:31.139Z,73.30
2022-09-20T15:11:34.010Z,73.94
2022-09-20T15:14:38.088Z,73.38
2022-09-20T15:17:46.193Z,73.36
2022-09-20T15:20:50.938Z,73.06
2022-09-20T15:23:54.288Z,72.90
2022-09-20T15:26:58.484Z,72.59
2022-09-20T15:30:01.499Z,72.63
2022-09-20T15:33:04.540Z,72.29
2022-09-20T15:36:08.629Z,72.47
2022-09-20T15:39:12.434Z,72.56
2022-09-20T15:42:15.802Z,72.40
2022-09-20T15:45:20.059Z,72.17
2022-09-20T15:48:25.331Z,72.35
2022-09-20T15:51:30.769Z,72.33
2022-09-20T15:54:33.935Z,72.24
2022-09-20T15:57:37.019Z,72.21
2022-09-20T16:00:41.348Z,72.18
2022-09-20T16:03:46.309Z,72.34
2022-09-20T16:06:52.241Z,72.36
2022-09-20T16:09:56.855Z,72.25
2022-09-20T16:12:59.863Z,72.15
2022-09-20T16:16:04.633Z,72.20
2022-09-20T16:19:23.263Z,72.26
2022-09-20T16:22:27.747Z,72.32
2022-09-20T16:25:31.362Z,72.50
2022-09-20T16:28:34.935Z,72.47
2022-09-20T16:31:42.758Z,72.62
2022-09-20T16:34:46.625Z,72.78
2022-09-20T16:37:50.750Z,72.72
2022-09-20T16:40:56.478Z,72.61
2022-09-20T16:44:01.250Z,72.60
2022-09-20T16:47:08.362Z,72.61
2022-09-20T16:50:12.986Z,72.87
2022-09-20T16:53:17.748Z,72.75
2022-09-20T16:56:24.292Z,72.71
2022-09-20T16:59:28.235Z,72.82
2022-09-20T17:02:31.932Z,72.78
2022-09-20T17:05:35.035Z,72.82
2022-09-20T17:08:40.797Z,72.96
2022-09-20T17:11:47.798Z,72.86
2022-09-20T17:14:51.729Z,73.09
2022-09-20T17:17:55.999Z,73.13
2022-09-20T17:21:08.795Z,73.22
2022-09-20T17:24:15.140Z,73.20
2022-09-20T17:27:19.449Z,73.37
2022-09-20T17:30:24.275Z,73.23
2022-09-20T17:33:30.208Z,73.20
2022-09-20T17:36:39.884Z,73.32
2022-09-20T17:39:42.896Z,73.56
2022-09-20T17:42:48.061Z,73.66
2022-09-20T17:45:51.091Z,73.90
2022-09-20T17:48:56.227Z,73.91
2022-09-20T17:51:59.297Z,74.14
2022-09-20T17:55:02.468Z,74.41
2022-09-20T17:58:05.644Z,74.33
2022-09-20T18:01:14.146Z,74.38
2022-09-20T18:04:17.214Z,74.29
2022-09-20T18:07:20.309Z,74.45
2022-09-20T18:10:29.222Z,74.32
2022-09-20T18:13:32.989Z,74.14
2022-09-20T18:16:37.472Z,74.57
2022-09-20T18:19:41.490Z,74.68
2022-09-20T18:22:48.249Z,74.57
2022-09-20T18:26:09.952Z,74.83
2022-09-20T18:29:17.077Z,74.79
2022-09-20T18:32:20.090Z,75.09
2022-09-20T18:35:23.164Z,74.87
2022-09-20T18:38:30.542Z,75.11
2022-09-20T18:41:36.067Z,75.34
2022-09-20T18:44:44.109Z,75.16
2022-09-20T18:47:47.332Z,75.22
2022-09-20T18:51:01.466Z,75.29
2022-09-20T18:54:04.771Z,75.28
2022-09-20T18:57:10.708Z,75.24
2022-09-20T19:00:15.517Z,75.35
2022-09-20T19:03:28.826Z,75.26
2022-09-20T19:06:49.802Z,75.36
2022-09-20T19:10:13.258Z,75.42
2022-09-20T19:14:01.145Z,75.39
2022-09-20T19:17:05.131Z,75.42
2022-09-20T19:20:29.590Z,75.15
2022-09-20T19:24:03.145Z,75.28
2022-09-20T19:27:12.886Z,75.33
2022-09-20T19:30:17.828Z,75.11
2022-09-20T19:33:21.299Z,75.20
2022-09-20T19:36:30.501Z,75.34
2022-09-20T19:39:57.460Z,75.23
2022-09-20T19:43:17.802Z,75.29
2022-09-20T19:46:36.758Z,75.13
2022-09-20T19:49:54.135Z,75.01
2022-09-20T19:53:06.895Z,75.21
2022-09-20T19:56:25.470Z,75.10
2022-09-20T19:59:29.446Z,74.95
2022-09-20T20:02:33.483Z,74.87
2022-09-20T20:05:37.031Z,74.78
2022-09-20T20:08:54.809Z,74.97
2022-09-20T20:11:57.810Z,75.03
2022-09-20T20:15:22.037Z,75.01
2022-09-20T20:18:44.243Z,74.97
2022-09-20T20:22:32.384Z,75.13
2022-09-20T20:26:03.498Z,75.27
2022-09-20T20:29:06.462Z,75.33
2022-09-20T20:32:10.264Z,75.28
2022-09-20T20:35:15.273Z,75.36
2022-09-20T20:38:18.145Z,75.64
2022-09-20T20:41:22.266Z,75.64
2022-09-20T20:44:26.440Z,75.62
2022-09-20T20:47:30.333Z,75.68
2022-09-20T20:50:34.431Z,75.84
2022-09-20T20:53:40.173Z,75.91
2022-09-20T20:56:43.142Z,76.28
2022-09-20T20:59:46.011Z,76.18
2022-09-20T21:02:49.318Z,76.49
2022-09-20T21:05:55.431Z,76.32
2022-09-20T21:08:59.120Z,76.22
2022-09-20T21:12:03.432Z,76.34
2022-09-20T21:15:07.214Z,76.33
2022-09-20T21:18:10.617Z,76.45
2022-09-20T21:21:36.044Z,76.38
2022-09-20T21:24:45.713Z,76.58
2022-09-20T21:27:49.607Z,76.58
2022-09-20T21:30:59.416Z,76.78
2022-09-20T21:34:06.781Z,76.78
2022-09-20T21:37:10.899Z,76.77
2022-09-20T21:40:14.054Z,76.64
2022-09-20T21:43:18.068Z,76.54
2022-09-20T21:46:33.497Z,76.73
2022-09-20T21:49:36.600Z,76.77
2022-09-20T21:52:39.470Z,76.65
2022-09-20T21:55:42.443Z,76.94
2022-09-20T21:58:46.354Z,76.89
2022-09-20T22:01:49.750Z,76.76
2022-09-20T22:04:53.925Z,76.72
2022-09-20T22:07:56.924Z,77.05
2022-09-20T22:10:59.967Z,77.09
2022-09-20T22:14:02.833Z,77.03
2022-09-20T22:17:05.909Z,77.01
2022-09-20T22:20:09.902Z,77.04
2022-09-20T22:23:13.089Z,77.00
2022-09-20T22:26:19.376Z,77.24
2022-09-20T22:29:22.409Z,77.28
2022-09-20T22:32:25.273Z,77.33
2022-09-20T22:35:28.753Z,77.40
2022-09-20T22:38:31.831Z,77.57
2022-09-20T22:41:37.271Z,77.30
2022-09-20T22:44:40.851Z,77.58
2022-09-20T22:47:44.230Z,77.56
2022-09-20T22:50:47.198Z,77.64
2022-09-20T22:53:52.459Z,77.60
2022-09-20T22:56:55.802Z,77.96
2022-09-20T22:59:58.884Z,78.21
2022-09-20T23:04:08.082Z,78.18
2022-09-20T23:07:11.447Z,77.93
2022-09-20T23:10:14.517Z,77.87
2022-09-20T23:13:53.310Z,77.80
2022-09-20T23:16:56.303Z,78.06
2022-09-20T23:19:59.317Z,78.00
2022-09-20T23:23:02.222Z,78.25
2022-09-20T23:26:08.146Z,78.40
2022-09-20T23:29:15.381Z,78.56
2022-09-20T23:32:18.405Z,78.17
2022-09-20T23:35:22.566Z,78.18
2022-09-20T23:38:26.700Z,78.19
2022-09-20T23:41:30.288Z,78.18
2022-09-20T23:44:41.756Z,78.30
2022-09-20T23:47:48.111Z,78.37
2022-09-20T23:50:51.176Z,78.39
2022-09-20T23:53:54.761Z,78.34
2022-09-20T23:56:57.736Z,78.21
